sensor_id;sensor_type;location;lat;lon;timestamp;P1;durP1;ratioP1;P2;durP2;ratioP2
80758;SDS011;70150;45.582;10.178;2023-05-14T00:02:35;4.22;;;1.50;;
80758;SDS011;70150;45.582;10.178;2023-05-14T00:05:03;4.00;;;1.20;;
80758;SDS011;70150;45.582;10.178;2023-05-14T00:07:29;3.85;;;1.58;;
80758;SDS011;70150;45.582;10.178;2023-05-14T00:09:55;4.20;;;1.30;;
80758;SDS011;70150;45.582;10.178;2023-05-14T00:12:22;9.73;;;1.58;;
80758;SDS011;70150;45.582;10.178;2023-05-14T00:14:47;3.22;;;1.30;;
80758;SDS011;70150;45.582;10.178;2023-05-14T00:17:13;5.25;;;1.50;;
80758;SDS011;70150;45.582;10.178;2023-05-14T00:19:38;5.07;;;1.55;;
80758;SDS011;70150;45.582;10.178;2023-05-14T00:22:07;2.72;;;1.50;;
80758;SDS011;70150;45.582;10.178;2023-05-14T00:24:33;5.70;;;1.40;;
80758;SDS011;70150;45.582;10.178;2023-05-14T00:27:02;4.53;;;1.52;;
80758;SDS011;70150;45.582;10.178;2023-05-14T00:29:28;7.03;;;1.63;;
80758;SDS011;70150;45.582;10.178;2023-05-14T00:31:53;6.70;;;1.30;;
80758;SDS011;70150;45.582;10.178;2023-05-14T00:34:19;2.35;;;1.20;;
80758;SDS011;70150;45.582;10.178;2023-05-14T00:36:44;3.50;;;1.60;;
80758;SDS011;70150;45.582;10.178;2023-05-14T00:39:10;4.28;;;1.60;;
80758;SDS011;70150;45.582;10.178;2023-05-14T00:41:37;7.70;;;1.75;;
80758;SDS011;70150;45.582;10.178;2023-05-14T00:44:03;3.10;;;1.50;;
80758;SDS011;70150;45.582;10.178;2023-05-14T00:46:29;2.88;;;1.40;;
80758;SDS011;70150;45.582;10.178;2023-05-14T00:48:54;3.17;;;1.40;;
80758;SDS011;70150;45.582;10.178;2023-05-14T00:51:21;5.45;;;1.80;;
80758;SDS011;70150;45.582;10.178;2023-05-14T00:53:47;3.15;;;1.65;;
80758;SDS011;70150;45.582;10.178;2023-05-14T00:56:13;9.13;;;2.10;;
80758;SDS011;70150;45.582;10.178;2023-05-14T01:01:05;5.63;;;2.00;;
80758;SDS011;70150;45.582;10.178;2023-05-14T01:03:31;7.15;;;1.90;;
80758;SDS011;70150;45.582;10.178;2023-05-14T01:06:00;10.68;;;2.10;;
80758;SDS011;70150;45.582;10.178;2023-05-14T01:11:02;5.85;;;1.63;;
80758;SDS011;70150;45.582;10.178;2023-05-14T01:13:36;4.68;;;1.80;;
80758;SDS011;70150;45.582;10.178;2023-05-14T01:16:11;5.57;;;1.83;;
80758;SDS011;70150;45.582;10.178;2023-05-14T01:18:38;9.93;;;1.85;;
80758;SDS011;70150;45.582;10.178;2023-05-14T01:21:17;5.95;;;2.15;;
80758;SDS011;70150;45.582;10.178;2023-05-14T01:23:48;9.57;;;2.28;;
80758;SDS011;70150;45.582;10.178;2023-05-14T01:26:13;3.97;;;1.88;;
80758;SDS011;70150;45.582;10.178;2023-05-14T01:28:41;8.32;;;2.00;;
80758;SDS011;70150;45.582;10.178;2023-05-14T01:31:11;7.35;;;1.75;;
80758;SDS011;70150;45.582;10.178;2023-05-14T01:33:42;5.35;;;1.70;;
80758;SDS011;70150;45.582;10.178;2023-05-14T01:36:09;4.57;;;1.83;;
80758;SDS011;70150;45.582;10.178;2023-05-14T01:38:35;5.85;;;2.00;;
80758;SDS011;70150;45.582;10.178;2023-05-14T01:41:02;5.13;;;1.60;;
80758;SDS011;70150;45.582;10.178;2023-05-14T01:43:32;6.70;;;1.98;;
80758;SDS011;70150;45.582;10.178;2023-05-14T01:45:58;7.03;;;1.80;;
80758;SDS011;70150;45.582;10.178;2023-05-14T01:48:23;6.93;;;2.13;;
80758;SDS011;70150;45.582;10.178;2023-05-14T01:50:49;7.30;;;1.70;;
80758;SDS011;70150;45.582;10.178;2023-05-14T01:53:15;6.15;;;2.00;;
80758;SDS011;70150;45.582;10.178;2023-05-14T01:55:41;9.88;;;1.95;;
80758;SDS011;70150;45.582;10.178;2023-05-14T01:58:06;7.07;;;2.05;;
80758;SDS011;70150;45.582;10.178;2023-05-14T02:00:32;9.38;;;2.03;;
80758;SDS011;70150;45.582;10.178;2023-05-14T02:02:58;5.50;;;1.90;;
80758;SDS011;70150;45.582;10.178;2023-05-14T02:05:23;9.43;;;2.20;;
80758;SDS011;70150;45.582;10.178;2023-05-14T02:07:49;5.47;;;1.80;;
80758;SDS011;70150;45.582;10.178;2023-05-14T02:10:15;6.22;;;1.80;;
80758;SDS011;70150;45.582;10.178;2023-05-14T02:12:41;6.25;;;2.22;;
80758;SDS011;70150;45.582;10.178;2023-05-14T02:15:07;10.38;;;2.40;;
80758;SDS011;70150;45.582;10.178;2023-05-14T02:17:34;7.38;;;2.08;;
80758;SDS011;70150;45.582;10.178;2023-05-14T02:20:00;6.53;;;2.05;;
80758;SDS011;70150;45.582;10.178;2023-05-14T02:22:26;5.97;;;1.98;;
80758;SDS011;70150;45.582;10.178;2023-05-14T02:24:51;8.05;;;2.33;;
80758;SDS011;70150;45.582;10.178;2023-05-14T02:27:17;6.32;;;1.92;;
80758;SDS011;70150;45.582;10.178;2023-05-14T02:29:46;7.18;;;2.10;;
80758;SDS011;70150;45.582;10.178;2023-05-14T02:32:11;7.75;;;1.88;;
80758;SDS011;70150;45.582;10.178;2023-05-14T02:34:37;6.25;;;2.17;;
80758;SDS011;70150;45.582;10.178;2023-05-14T02:37:02;9.50;;;1.92;;
80758;SDS011;70150;45.582;10.178;2023-05-14T02:39:28;7.63;;;2.00;;
80758;SDS011;70150;45.582;10.178;2023-05-14T02:41:54;6.57;;;1.90;;
80758;SDS011;70150;45.582;10.178;2023-05-14T02:44:22;7.35;;;1.90;;
80758;SDS011;70150;45.582;10.178;2023-05-14T02:46:50;6.65;;;2.05;;
80758;SDS011;70150;45.582;10.178;2023-05-14T02:49:16;5.05;;;2.10;;
80758;SDS011;70150;45.582;10.178;2023-05-14T02:51:41;5.97;;;1.70;;
80758;SDS011;70150;45.582;10.178;2023-05-14T02:54:07;5.00;;;1.73;;
80758;SDS011;70150;45.582;10.178;2023-05-14T02:56:32;6.35;;;1.90;;
80758;SDS011;70150;45.582;10.178;2023-05-14T02:58:58;5.72;;;1.77;;
80758;SDS011;70150;45.582;10.178;2023-05-14T03:01:23;6.78;;;2.05;;
80758;SDS011;70150;45.582;10.178;2023-05-14T03:03:49;6.13;;;1.95;;
80758;SDS011;70150;45.582;10.178;2023-05-14T03:06:15;5.88;;;2.15;;
80758;SDS011;70150;45.582;10.178;2023-05-14T03:08:42;5.38;;;1.95;;
80758;SDS011;70150;45.582;10.178;2023-05-14T03:11:08;3.25;;;1.50;;
80758;SDS011;70150;45.582;10.178;2023-05-14T03:13:34;5.35;;;1.67;;
80758;SDS011;70150;45.582;10.178;2023-05-14T03:15:59;6.70;;;1.75;;
80758;SDS011;70150;45.582;10.178;2023-05-14T03:18:27;5.15;;;1.45;;
80758;SDS011;70150;45.582;10.178;2023-05-14T03:20:54;5.50;;;1.95;;
80758;SDS011;70150;45.582;10.178;2023-05-14T03:23:22;5.70;;;1.60;;
80758;SDS011;70150;45.582;10.178;2023-05-14T03:25:48;6.70;;;2.08;;
80758;SDS011;70150;45.582;10.178;2023-05-14T03:28:13;4.80;;;1.40;;
80758;SDS011;70150;45.582;10.178;2023-05-14T03:30:39;4.78;;;1.42;;
80758;SDS011;70150;45.582;10.178;2023-05-14T03:33:04;4.38;;;1.40;;
80758;SDS011;70150;45.582;10.178;2023-05-14T03:35:30;4.88;;;1.73;;
80758;SDS011;70150;45.582;10.178;2023-05-14T03:37:56;3.55;;;1.60;;
80758;SDS011;70150;45.582;10.178;2023-05-14T03:45:14;3.67;;;1.35;;
80758;SDS011;70150;45.582;10.178;2023-05-14T03:47:40;3.58;;;1.40;;
80758;SDS011;70150;45.582;10.178;2023-05-14T03:50:06;6.68;;;1.30;;
80758;SDS011;70150;45.582;10.178;2023-05-14T03:52:32;5.05;;;1.92;;
80758;SDS011;70150;45.582;10.178;2023-05-14T03:54:58;2.78;;;1.13;;
80758;SDS011;70150;45.582;10.178;2023-05-14T03:57:23;3.47;;;1.20;;
80758;SDS011;70150;45.582;10.178;2023-05-14T03:59:49;3.17;;;1.13;;
80758;SDS011;70150;45.582;10.178;2023-05-14T04:02:15;4.18;;;1.30;;
80758;SDS011;70150;45.582;10.178;2023-05-14T04:04:40;4.60;;;1.35;;
80758;SDS011;70150;45.582;10.178;2023-05-14T04:07:06;3.20;;;1.27;;
80758;SDS011;70150;45.582;10.178;2023-05-14T04:09:32;2.85;;;1.30;;
80758;SDS011;70150;45.582;10.178;2023-05-14T04:11:58;3.40;;;1.63;;
80758;SDS011;70150;45.582;10.178;2023-05-14T04:14:24;2.30;;;1.20;;
80758;SDS011;70150;45.582;10.178;2023-05-14T04:16:54;3.88;;;1.25;;
80758;SDS011;70150;45.582;10.178;2023-05-14T04:19:20;4.43;;;1.27;;
80758;SDS011;70150;45.582;10.178;2023-05-14T04:21:45;4.78;;;1.40;;
80758;SDS011;70150;45.582;10.178;2023-05-14T04:24:11;3.85;;;1.45;;
80758;SDS011;70150;45.582;10.178;2023-05-14T04:26:36;3.05;;;1.13;;
80758;SDS011;70150;45.582;10.178;2023-05-14T04:29:02;3.65;;;1.23;;
80758;SDS011;70150;45.582;10.178;2023-05-14T04:31:30;5.18;;;1.30;;
80758;SDS011;70150;45.582;10.178;2023-05-14T04:33:56;2.88;;;1.20;;
80758;SDS011;70150;45.582;10.178;2023-05-14T04:36:21;3.08;;;1.20;;
80758;SDS011;70150;45.582;10.178;2023-05-14T04:38:47;1.55;;;1.13;;
80758;SDS011;70150;45.582;10.178;2023-05-14T04:41:12;2.45;;;1.00;;
80758;SDS011;70150;45.582;10.178;2023-05-14T04:43:38;2.97;;;1.15;;
80758;SDS011;70150;45.582;10.178;2023-05-14T04:46:04;2.80;;;1.13;;
80758;SDS011;70150;45.582;10.178;2023-05-14T04:48:30;2.15;;;1.10;;
80758;SDS011;70150;45.582;10.178;2023-05-14T04:50:55;1.70;;;1.10;;
80758;SDS011;70150;45.582;10.178;2023-05-14T04:53:21;2.40;;;0.95;;
80758;SDS011;70150;45.582;10.178;2023-05-14T04:55:46;2.08;;;0.98;;
80758;SDS011;70150;45.582;10.178;2023-05-14T04:58:14;3.17;;;0.90;;
80758;SDS011;70150;45.582;10.178;2023-05-14T05:00:40;1.88;;;0.90;;
80758;SDS011;70150;45.582;10.178;2023-05-14T05:03:05;2.35;;;1.30;;
80758;SDS011;70150;45.582;10.178;2023-05-14T05:05:31;1.88;;;0.90;;
80758;SDS011;70150;45.582;10.178;2023-05-14T05:07:57;3.13;;;1.00;;
80758;SDS011;70150;45.582;10.178;2023-05-14T05:10:22;2.97;;;1.05;;
80758;SDS011;70150;45.582;10.178;2023-05-14T05:12:48;2.97;;;1.25;;
80758;SDS011;70150;45.582;10.178;2023-05-14T05:15:14;1.70;;;1.08;;
80758;SDS011;70150;45.582;10.178;2023-05-14T05:17:42;3.88;;;1.13;;
80758;SDS011;70150;45.582;10.178;2023-05-14T05:20:08;1.85;;;0.98;;
80758;SDS011;70150;45.582;10.178;2023-05-14T05:22:34;2.92;;;1.10;;
80758;SDS011;70150;45.582;10.178;2023-05-14T05:25:00;1.63;;;1.00;;
80758;SDS011;70150;45.582;10.178;2023-05-14T05:27:30;1.75;;;0.90;;
80758;SDS011;70150;45.582;10.178;2023-05-14T05:29:56;1.73;;;0.93;;
80758;SDS011;70150;45.582;10.178;2023-05-14T05:32:22;2.70;;;1.17;;
80758;SDS011;70150;45.582;10.178;2023-05-14T05:34:48;3.47;;;1.00;;
80758;SDS011;70150;45.582;10.178;2023-05-14T05:37:13;3.13;;;1.00;;
80758;SDS011;70150;45.582;10.178;2023-05-14T05:39:39;1.15;;;0.90;;
80758;SDS011;70150;45.582;10.178;2023-05-14T05:42:05;1.23;;;0.80;;
80758;SDS011;70150;45.582;10.178;2023-05-14T05:44:31;1.23;;;0.70;;
80758;SDS011;70150;45.582;10.178;2023-05-14T05:46:56;2.63;;;1.00;;
80758;SDS011;70150;45.582;10.178;2023-05-14T05:49:22;2.13;;;0.90;;
80758;SDS011;70150;45.582;10.178;2023-05-14T05:51:48;2.05;;;0.90;;
80758;SDS011;70150;45.582;10.178;2023-05-14T05:54:13;2.42;;;0.80;;
80758;SDS011;70150;45.582;10.178;2023-05-14T05:56:39;1.80;;;1.00;;
80758;SDS011;70150;45.582;10.178;2023-05-14T05:59:05;2.63;;;1.00;;
80758;SDS011;70150;45.582;10.178;2023-05-14T06:01:30;2.08;;;0.80;;
80758;SDS011;70150;45.582;10.178;2023-05-14T06:03:56;1.58;;;0.80;;
80758;SDS011;70150;45.582;10.178;2023-05-14T06:06:22;1.52;;;0.93;;
80758;SDS011;70150;45.582;10.178;2023-05-14T06:08:47;1.58;;;0.80;;
